Terminal Aerodrome Forecast
Issued by NWS

Home | Current Version | Previous Version | Text Only | Print | Product List | Glossary On
Versions: 1 2 3 4 5 6 7 8 9 10 11 12 13
000
FTUS41 KPBZ 241100
TAFMGW
TAF
KMGW 241120Z 2412/2512 21010G17KT P6SM FEW045 OVC070
     FM241500 21013G29KT P6SM BKN050
     FM241600 20017G39KT P6SM BKN050
     FM242100 23014G30KT P6SM BKN050
     FM250500 23010G20KT P6SM BKN025=

USA.gov is the U.S. government's official web portal to all federal, state and local government web resources and services.